Time;durP1;ratioP1;P1;durP2;ratioP2;P2;SDS_P1;SDS_P2;PMS_P1;PMS_P2;Temp;Humidity;BMP_temperature;BMP_pressure;BME280_temperature;BME280_humidity;BME280_pressure;Samples;Min_cycle;Max_cycle;Signal;HPM_P1;HPM_P2
2023/07/04 00:00:15;;;;;;;9.20;9.00;;;;;;;-141.02;100.00;86249.22;5133658;27;20196;-55
2023/07/04 00:02:42;;;;;;;9.82;9.52;;;;;;;-141.02;100.00;84258.75;5133723;27;20276;-55
2023/07/04 00:05:10;;;;;;;11.10;10.80;;;;;;;-141.02;100.00;83015.31;5133483;27;20283;-55
2023/07/04 00:11:22;;;;;;;11.05;10.75;;;;;;;-141.02;100.00;82020.88;5133467;27;20209;-55
2023/07/04 00:13:50;;;;;;;10.77;10.48;;;;;;;-141.02;100.00;82269.47;5133270;27;20188;-56
2023/07/04 00:16:42;;;;;;;10.57;10.27;;;;;;;-141.02;100.00;82518.06;5133253;27;20227;-55
2023/07/04 00:19:09;;;;;;;10.00;9.70;;;;;;;-141.02;100.00;83015.31;5133289;27;20188;-58
2023/07/04 00:21:38;;;;;;;9.90;9.60;;;;;;;-141.02;100.00;83761.31;5133201;27;20199;-56
2023/07/04 00:24:06;;;;;;;10.07;9.77;;;;;;;-141.02;100.00;84258.75;5133516;27;20220;-55
2023/07/04 00:29:58;;;;;;;9.27;9.00;;;;;;;-141.02;100.00;85005.03;5133172;27;20673;-62
2023/07/04 00:32:25;;;;;;;9.60;9.30;;;;;;;-141.02;100.00;84756.25;5133094;27;20200;-57
2023/07/04 00:34:52;;;;;;;9.35;9.05;;;;;;;-141.02;100.00;84258.75;5133256;27;20255;-56
2023/07/04 00:37:21;;;;;;;9.30;9.00;;;;;;;-141.02;100.00;84507.50;5132939;27;20567;-55
2023/07/04 00:39:48;;;;;;;8.90;8.70;;;;;;;-141.02;100.00;85005.03;5133269;27;20192;-55
2023/07/04 00:42:18;;;;;;;8.75;8.55;;;;;;;-141.02;100.00;85253.84;5132910;27;20658;-55
2023/07/04 00:44:55;;;;;;;9.02;8.82;;;;;;;-141.02;100.00;84507.50;5133116;27;20204;-55
2023/07/04 00:47:33;;;;;;;8.98;8.77;;;;;;;-141.02;100.00;84010.03;5133220;27;20539;-56
2023/07/04 00:50:07;;;;;;;8.63;8.43;;;;;;;-141.02;100.00;84258.75;5132329;27;20228;-55
2023/07/04 00:52:37;;;;;;;9.15;8.95;;;;;;;-141.02;100.00;84258.75;5133150;28;20187;-56
2023/07/04 00:55:10;;;;;;;9.15;8.90;;;;;;;-141.02;100.00;84258.75;5133052;28;20224;-56
2023/07/04 00:57:37;;;;;;;9.48;9.18;;;;;;;-141.02;100.00;84010.03;5133173;27;20185;-55
2023/07/04 01:00:15;;;;;;;9.35;9.05;;;;;;;-141.02;100.00;83512.63;5133019;28;20199;-58
2023/07/04 01:02:48;;;;;;;9.25;8.95;;;;;;;-141.02;100.00;83015.31;5133072;28;20184;-56
2023/07/04 01:05:19;;;;;;;9.70;9.40;;;;;;;-141.02;100.00;82518.06;5133010;28;20200;-55
2023/07/04 01:07:54;;;;;;;9.93;9.63;;;;;;;-141.02;100.00;82020.88;5132703;28;20212;-59
2023/07/04 01:10:25;;;;;;;10.00;9.70;;;;;;;-141.02;100.00;81523.75;5133097;27;20243;-55
2023/07/04 01:12:52;;;;;;;10.00;9.70;;;;;;;-141.02;100.00;82020.88;5132957;28;20185;-55
2023/07/04 01:15:19;;;;;;;9.50;9.20;;;;;;;-141.02;100.00;82766.69;5132586;27;20701;-63
2023/07/04 01:17:48;;;;;;;9.30;9.00;;;;;;;-141.02;100.00;83263.97;5132511;28;20654;-55
2023/07/04 01:20:17;;;;;;;8.50;8.30;;;;;;;-141.02;100.00;84010.03;5132837;28;20203;-56
2023/07/04 01:22:53;;;;;;;8.40;8.20;;;;;;;-141.02;100.00;84756.25;5132813;28;20200;-55
2023/07/04 01:25:30;;;;;;;7.72;7.53;;;;;;;-141.02;100.00;86000.34;5133007;27;20244;-55
2023/07/04 01:28:03;;;;;;;7.50;7.30;;;;;;;-141.02;100.00;86747.00;5132763;28;20207;-56
2023/07/04 01:30:32;;;;;;;7.32;7.13;;;;;;;-141.02;100.00;87991.81;5132551;28;20216;-57
2023/07/04 01:33:01;;;;;;;6.78;6.57;;;;;;;-141.02;100.00;88987.97;5132852;28;20224;-56
2023/07/04 01:35:29;;;;;;;6.18;6.07;;;;;;;-141.02;100.00;89237.03;5132666;28;20228;-55
2023/07/04 01:37:56;;;;;;;5.90;5.80;;;;;;;-141.02;100.00;89486.16;5132423;28;20200;-62
2023/07/04 01:40:24;;;;;;;5.95;5.85;;;;;;;-141.02;100.00;89984.41;5132672;28;20265;-63
2023/07/04 01:42:52;;;;;;;6.20;6.10;;;;;;;-141.02;100.00;90482.72;5132456;28;20192;-55
2023/07/04 01:45:21;;;;;;;5.78;5.68;;;;;;;-141.02;100.00;91230.38;5132667;28;20275;-67
2023/07/04 01:47:48;;;;;;;5.80;5.70;;;;;;;-141.02;100.00;91978.16;5132350;28;20228;-57
2023/07/04 01:50:16;;;;;;;5.20;5.10;;;;;;;-141.02;100.00;93474.22;5132074;28;20772;-67
2023/07/04 01:52:43;;;;;;;4.40;4.30;;;;;;;-141.02;100.00;95220.47;5132579;28;20192;-55
2023/07/04 01:55:12;;;;;;;4.50;4.40;;;;;;;-141.02;100.00;96218.69;5132201;27;20220;-66
2023/07/04 01:57:40;;;;;;;4.85;4.75;;;;;;;-141.02;100.00;96967.56;5132512;28;20235;-59
2023/07/04 02:00:10;;;;;;;4.93;4.82;;;;;;;-141.02;100.00;97217.22;5132164;28;20202;-55
2023/07/04 02:02:39;;;;;;;4.70;4.60;;;;;;;-141.02;100.00;97217.22;5133720;27;20235;-64
2023/07/04 02:05:06;;;;;;;4.80;4.70;;;;;;;-141.02;100.00;97217.22;5136132;27;20227;-56
2023/07/04 02:07:33;;;;;;;5.10;5.00;;;;;;;-141.02;100.00;97217.22;5135778;27;20188;-68
2023/07/04 02:10:00;;;;;;;5.18;5.07;;;;;;;-141.02;100.00;96967.56;5136049;27;20295;-56
2023/07/04 02:12:27;;;;;;;5.38;5.28;;;;;;;-141.02;100.00;96967.56;5135963;27;20257;-59
2023/07/04 02:18:18;;;;;;;5.68;5.57;;;;;;;-141.02;100.00;96468.31;5135715;27;20249;-62
2023/07/04 02:20:45;;;;;;;5.80;5.70;;;;;;;-141.02;100.00;96218.69;5135425;27;20560;-55
2023/07/04 02:23:12;;;;;;;5.80;5.70;;;;;;;-141.02;100.00;95969.13;5135895;27;20275;-55
2023/07/04 02:25:41;;;;;;;5.50;5.40;;;;;;;-141.02;100.00;96218.69;5135437;27;20689;-56
2023/07/04 02:28:08;;;;;;;6.05;5.95;;;;;;;-141.02;100.00;96218.69;5135652;27;20600;-56
2023/07/04 02:30:35;;;;;;;5.80;5.70;;;;;;;-141.02;100.00;96218.69;5135744;27;20196;-56
2023/07/04 02:33:02;;;;;;;6.10;6.00;;;;;;;-141.02;100.00;95969.13;5135623;27;20245;-56
2023/07/04 02:35:31;;;;;;;5.97;5.88;;;;;;;-141.02;100.00;95969.13;5135607;27;20263;-56
2023/07/04 02:37:59;;;;;;;5.85;5.75;;;;;;;-141.02;100.00;96218.69;5135182;27;20203;-56
2023/07/04 02:40:25;;;;;;;5.38;5.28;;;;;;;-141.02;100.00;96717.94;5135512;27;20200;-55
2023/07/04 02:42:52;;;;;;;5.30;5.20;;;;;;;-141.02;100.00;97217.22;5135166;27;20231;-56
2023/07/04 02:45:19;;;;;;;5.32;5.22;;;;;;;-141.02;100.00;97716.59;5135043;27;20673;-56
2023/07/04 02:47:46;;;;;;;5.30;5.20;;;;;;;-141.02;100.00;97966.31;5135270;27;20224;-60
2023/07/04 02:50:13;;;;;;;5.22;5.13;;;;;;;-141.02;100.00;98216.03;5134717;27;20263;-57
2023/07/04 02:52:42;;;;;;;5.40;5.30;;;;;;;-141.02;100.00;98465.78;5135325;27;20227;-55
2023/07/04 02:55:09;;;;;;;5.70;5.60;;;;;;;-141.02;100.00;98216.03;5134815;27;20279;-56
2023/07/04 02:57:36;;;;;;;5.80;5.70;;;;;;;-141.02;100.00;98216.03;5135099;27;20189;-55
2023/07/04 03:00:04;;;;;;;6.00;5.90;;;;;;;-141.02;100.00;98216.03;5134758;27;20196;-56
2023/07/04 03:02:31;;;;;;;6.50;6.32;;;;;;;-141.02;100.00;98465.78;5135027;27;20192;-66
2023/07/04 03:04:58;;;;;;;5.78;5.68;;;;;;;-141.02;100.00;98715.56;5135025;27;20189;-63
2023/07/04 03:07:24;;;;;;;5.40;5.30;;;;;;;-141.02;100.00;99464.97;5134561;27;20235;-66
2023/07/04 03:09:53;;;;;;;5.90;5.80;;;;;;;-141.02;100.00;99215.16;5134556;27;20569;-56
2023/07/04 03:12:20;;;;;;;6.10;6.00;;;;;;;-141.02;100.00;98965.34;5134530;27;20766;-63
2023/07/04 03:14:47;;;;;;;5.93;5.82;;;;;;;-141.02;100.00;99215.16;5134446;27;20224;-62
2023/07/04 03:17:14;;;;;;;5.72;5.63;;;;;;;-141.02;100.00;99464.97;5134309;27;20281;-55
2023/07/04 03:19:41;;;;;;;6.25;6.15;;;;;;;-141.02;100.00;99714.81;5134406;27;20189;-56
2023/07/04 03:22:08;;;;;;;5.95;5.85;;;;;;;-141.02;100.00;99964.66;5134306;27;20203;-66
2023/07/04 03:24:35;;;;;;;6.20;6.10;;;;;;;-141.02;100.00;100214.53;5134288;27;20227;-56
2023/07/04 03:27:04;;;;;;;5.75;5.65;;;;;;;-141.02;100.00;100964.25;5134530;27;20620;-56
2023/07/04 03:29:31;;;;;;;5.60;5.50;;;;;;;-141.02;100.00;101214.22;5134446;27;20192;-55
2023/07/04 03:35:19;;;;;;;5.53;5.43;;;;;;;-141.02;100.00;101464.19;5134183;27;20241;-55
2023/07/04 03:38:22;;;;;;;6.10;6.00;;;;;;;-141.02;100.00;101714.16;5134055;27;20235;-55
2023/07/04 03:40:49;;;;;;;7.85;7.65;;;;;;;-141.02;100.00;101464.19;5134045;27;20279;-55
2023/07/04 03:43:18;;;;;;;9.77;9.48;;;;;;;-141.02;100.00;99464.97;5133916;27;20197;-57
2023/07/04 03:45:46;;;;;;;11.40;11.10;;;;;;;-141.02;100.00;97217.22;5134234;27;20227;-56
2023/07/04 03:48:13;;;;;;;12.18;11.77;;;;;;;-141.02;100.00;95470.00;5134075;27;20196;-56
2023/07/04 03:50:40;;;;;;;12.88;12.48;;;;;;;-141.02;100.00;93973.06;5134146;27;20191;-59
2023/07/04 03:53:07;;;;;;;14.38;13.88;;;;;;;-141.02;100.00;91479.63;5134114;27;20196;-56
2023/07/04 03:55:34;;;;;;;14.57;14.07;;;;;;;-141.02;100.00;90731.94;5133625;27;20196;-56
2023/07/04 03:58:02;;;;;;;14.30;13.80;;;;;;;-141.02;100.00;90981.13;5134052;27;20226;-56
2023/07/04 04:00:30;;;;;;;15.02;14.43;;;;;;;-141.02;100.00;90233.56;5133852;27;20192;-56
2023/07/04 04:02:57;;;;;;;15.65;14.95;;;;;;;-141.02;100.00;88738.88;5133954;27;20197;-56
2023/07/04 04:05:24;;;;;;;16.58;15.77;;;;;;;-141.02;100.00;86000.34;5133832;27;20193;-56
2023/07/04 04:07:51;;;;;;;17.30;16.40;;;;;;;-141.02;100.00;83015.31;5133593;27;20231;-56
2023/07/04 04:10:19;;;;;;;18.02;17.02;;;;;;;-141.02;96.83;82020.88;5133462;27;20196;-56
2023/07/04 04:12:46;;;;;;;18.42;17.33;;;;;;;-141.02;90.00;80529.75;5133395;27;20205;-56
2023/07/04 04:15:14;;;;;;;18.90;17.70;;;;;;;-141.02;84.33;79536.03;5133734;27;20271;-56
2023/07/04 04:17:43;;;;;;;19.35;18.15;;;;;;;-141.02;81.13;79039.28;5133528;27;20234;-56
2023/07/04 04:20:11;;;;;;;18.90;17.70;;;;;;;-141.02;77.92;78542.63;5133344;27;20207;-56
2023/07/04 04:22:43;;;;;;;19.33;18.02;;;;;;;-141.02;78.33;77301.22;5133235;27;20793;-57
2023/07/04 04:25:10;;;;;;;19.80;18.50;;;;;;;-141.02;76.83;77797.72;5132966;27;20241;-57
2023/07/04 04:27:41;;;;;;;19.90;18.50;;;;;;;-141.02;74.94;77301.22;5133460;27;20722;-59
2023/07/04 04:30:10;;;;;;;20.40;18.90;;;;;;;-141.02;71.59;77549.47;5133098;27;20203;-56
2023/07/04 04:32:39;;;;;;;20.75;19.20;;;;;;;-141.02;71.53;77797.72;5133127;27;20658;-56
2023/07/04 04:51:30;;;;;;;24.85;23.05;;;;;;;-141.02;70.07;74075.72;5151809;27;20534;-56
2023/07/04 04:53:57;;;;;;;23.77;21.98;;;;;;;-141.02;69.79;73827.72;5151262;27;20279;-55
2023/07/04 04:56:24;;;;;;;24.25;22.65;;;;;;;-141.02;70.32;72588.06;5151090;27;20192;-56
2023/07/04 05:09:46;;;;;;;20.02;18.63;;;;;;;-141.02;80.28;70853.25;5151504;27;20549;-56
2023/07/04 05:12:13;;;;;;;19.92;18.52;;;;;;;-141.02;83.72;70853.25;5150936;27;20677;-57
2023/07/04 05:14:40;;;;;;;20.42;19.02;;;;;;;-141.02;84.53;70357.75;5151089;27;20188;-57
2023/07/04 05:17:07;;;;;;;19.50;18.10;;;;;;;-141.02;86.35;70853.25;5151081;27;20234;-67
2023/07/04 05:19:34;;;;;;;19.40;18.10;;;;;;;-141.02;89.18;70357.75;5151028;27;20199;-61
2023/07/04 05:22:02;;;;;;;19.58;18.27;;;;;;;-141.02;91.01;70357.75;5150765;27;20227;-67
2023/07/04 05:24:29;;;;;;;19.30;18.10;;;;;;;-141.02;90.91;70853.25;5151023;27;20577;-67
2023/07/04 05:26:57;;;;;;;18.13;16.92;;;;;;;-141.02;89.40;72092.31;5150984;27;20226;-66
2023/07/04 05:29:24;;;;;;;18.88;17.77;;;;;;;-141.02;90.14;71101.03;5150902;27;20238;-65
2023/07/04 05:31:52;;;;;;;17.88;16.67;;;;;;;-141.02;90.34;72835.97;5150528;27;20279;-68
2023/07/04 05:34:19;;;;;;;19.08;17.88;;;;;;;-141.02;89.19;71596.63;5150789;27;20611;-58
2023/07/04 05:36:46;;;;;;;18.67;17.40;;;;;;;-141.02;90.09;71348.81;5150772;27;20276;-66
2023/07/04 05:39:12;;;;;;;18.67;17.48;;;;;;;-141.02;91.05;72092.31;5150694;27;20259;-67
2023/07/04 05:41:39;;;;;;;17.60;16.50;;;;;;;-141.02;94.21;71348.81;5150347;27;20195;-67
2023/07/04 05:44:10;;;;;;;17.48;16.48;;;;;;;-141.02;96.26;71348.81;5150299;27;20248;-58
2023/07/04 05:46:38;;;;;;;17.10;16.10;;;;;;;-141.02;96.72;72092.31;5150582;27;20271;-66
2023/07/04 05:49:07;;;;;;;17.30;16.20;;;;;;;-141.02;99.29;71596.63;5150495;27;20204;-57
2023/07/04 05:51:34;;;;;;;16.92;15.93;;;;;;;-141.02;99.84;72588.06;5151372;27;20284;-67
2023/07/04 05:54:01;;;;;;;17.67;16.58;;;;;;;-141.02;99.48;72340.16;5150124;27;20216;-67
2023/07/04 05:56:30;;;;;;;17.83;16.73;;;;;;;-141.02;100.00;73331.81;5150442;27;20265;-64
2023/07/04 05:58:58;;;;;;;18.52;17.42;;;;;;;-141.02;99.44;72340.16;5150316;27;20315;-66
2023/07/04 06:01:32;;;;;;;17.73;16.63;;;;;;;-141.02;100.00;72835.97;5150268;27;20188;-64
2023/07/04 06:04:00;;;;;;;17.90;16.80;;;;;;;-141.02;100.00;72835.97;5150252;27;20202;-67
2023/07/04 06:06:28;;;;;;;18.52;17.33;;;;;;;-141.02;100.00;73083.88;5149864;27;20697;-67
2023/07/04 06:08:57;;;;;;;16.70;15.70;;;;;;;-141.02;100.00;72588.06;5145953;27;20227;-65
2023/07/04 06:11:26;;;;;;;15.68;14.88;;;;;;;-141.02;100.00;72588.06;5136325;27;20249;-59
2023/07/04 06:13:54;;;;;;;15.20;14.40;;;;;;;-141.02;100.00;73579.75;5135993;27;20193;-66
2023/07/04 06:16:21;;;;;;;15.43;14.60;;;;;;;-141.02;100.00;74075.72;5136225;27;20575;-62
2023/07/04 06:18:49;;;;;;;15.60;14.80;;;;;;;-141.02;100.00;75067.88;5135784;27;20315;-66
2023/07/04 06:21:18;;;;;;;16.02;15.13;;;;;;;-141.02;100.00;75067.88;5136154;27;20229;-66
2023/07/04 06:23:46;;;;;;;15.70;14.80;;;;;;;-141.02;100.00;75315.94;5135687;27;20203;-67
2023/07/04 06:26:14;;;;;;;17.60;16.40;;;;;;;-141.02;97.13;73827.72;5135651;27;20287;-67
2023/07/04 06:28:42;;;;;;;17.35;16.15;;;;;;;-141.02;98.38;73827.72;5135912;27;20241;-63
2023/07/04 06:31:12;;;;;;;17.05;15.95;;;;;;;-141.02;96.53;73331.81;5135926;27;20199;-58
2023/07/04 06:33:39;;;;;;;16.88;15.77;;;;;;;-141.02;95.22;72835.97;5136207;27;20323;-57
2023/07/04 06:36:10;;;;;;;17.05;15.95;;;;;;;-141.02;97.45;73083.88;5135781;27;20228;-58
2023/07/04 06:38:38;;;;;;;16.95;15.85;;;;;;;-141.02;96.63;74819.81;5135742;27;20216;-66
2023/07/04 06:41:08;;;;;;;16.58;15.48;;;;;;;-141.02;96.63;74075.72;5135357;27;20661;-66
2023/07/04 06:43:35;;;;;;;16.63;15.55;;;;;;;-141.02;96.75;75067.88;5135739;27;20188;-58
2023/07/04 06:46:03;;;;;;;17.48;16.17;;;;;;;-141.02;95.44;73579.75;5135609;27;20738;-64
2023/07/04 06:48:30;;;;;;;17.33;16.13;;;;;;;-141.02;95.51;75564.03;5135587;27;20279;-66
2023/07/04 06:50:58;;;;;;;17.98;16.67;;;;;;;-141.02;95.16;76060.28;5135220;27;20728;-57
2023/07/04 06:53:27;;;;;;;18.20;16.90;;;;;;;-141.02;91.86;75812.16;5135198;27;20197;-57
2023/07/04 06:56:03;;;;;;;17.98;16.67;;;;;;;-141.02;91.65;76804.81;5135703;27;20240;-59
2023/07/04 06:58:30;;;;;;;19.10;17.60;;;;;;;-141.02;86.49;74819.81;5135356;27;20212;-64
2023/07/04 07:00:57;;;;;;;18.75;17.35;;;;;;;-141.02;88.87;75067.88;5135426;27;20249;-57
2023/07/04 07:03:24;;;;;;;18.70;17.30;;;;;;;-141.02;90.22;74323.72;5134979;27;20199;-58
2023/07/04 07:05:51;;;;;;;18.33;16.92;;;;;;;-141.02;91.46;74323.72;5135292;27;20195;-57
2023/07/04 07:08:18;;;;;;;18.00;16.70;;;;;;;-141.02;91.56;75812.16;5134806;27;20228;-64
2023/07/04 07:10:55;;;;;;;18.90;17.50;;;;;;;-141.02;88.43;76804.81;5135192;27;20196;-64
2023/07/04 07:13:22;;;;;;;19.17;17.67;;;;;;;-141.02;84.41;76060.28;5135122;27;20188;-66
2023/07/04 07:15:49;;;;;;;19.05;17.55;;;;;;;-141.02;86.08;76308.44;5135074;27;20192;-67
2023/07/04 07:18:16;;;;;;;18.90;17.50;;;;;;;-141.02;84.49;75564.03;5134840;27;20224;-66
2023/07/04 07:20:43;;;;;;;19.48;17.88;;;;;;;-141.02;82.88;75564.03;5133994;27;20196;-66
2023/07/04 07:23:12;;;;;;;19.55;17.98;;;;;;;-141.02;84.55;76556.59;5134878;27;20275;-65
2023/07/04 07:25:39;;;;;;;19.88;18.27;;;;;;;-141.02;82.79;76556.59;5134825;27;20672;-67
2023/07/04 07:28:07;;;;;;;20.00;18.40;;;;;;;-141.02;81.90;76556.59;5134796;27;20275;-60
2023/07/04 07:30:34;;;;;;;19.67;18.08;;;;;;;-141.02;81.44;76308.44;5134845;27;20197;-57
2023/07/04 07:33:01;;;;;;;19.75;18.15;;;;;;;-141.02;81.56;76804.81;5134389;27;20284;-61
2023/07/04 07:35:31;;;;;;;19.80;18.30;;;;;;;-141.02;82.30;75315.94;5134322;27;20639;-63
2023/07/04 07:37:58;;;;;;;20.90;19.40;;;;;;;-141.02;83.75;75812.16;5134158;27;20607;-67
2023/07/04 07:40:26;;;;;;;21.30;19.70;;;;;;;-141.02;79.69;76556.59;5134493;27;20249;-57
2023/07/04 07:42:53;;;;;;;21.25;19.65;;;;;;;-141.02;78.42;76060.28;5134191;27;20557;-67
2023/07/04 07:45:22;;;;;;;21.02;19.50;;;;;;;-141.02;80.51;75315.94;5134397;27;20633;-67
2023/07/04 07:47:49;;;;;;;20.10;18.60;;;;;;;-141.02;78.71;76556.59;5134014;27;20567;-67
2023/07/04 07:50:16;;;;;;;21.05;19.45;;;;;;;-141.02;76.82;75812.16;5134011;27;20400;-66
2023/07/04 07:52:43;;;;;;;21.02;19.33;;;;;;;-141.02;75.32;76556.59;5134327;27;20253;-62
2023/07/04 07:55:10;;;;;;;21.63;19.92;;;;;;;-141.02;77.86;78294.28;5134193;27;20219;-65
2023/07/04 07:57:37;;;;;;;21.40;19.70;;;;;;;-141.02;80.33;76804.81;5133933;27;20214;-66
2023/07/04 08:00:05;;;;;;;20.52;18.92;;;;;;;-141.02;79.38;77053.00;5134068;27;20289;-66
2023/07/04 08:02:33;;;;;;;20.40;18.80;;;;;;;-141.02;76.45;77053.00;5134105;27;20193;-67
2023/07/04 08:05:01;;;;;;;20.17;18.58;;;;;;;-141.02;76.16;77301.22;5133756;27;20228;-64
2023/07/04 08:07:28;;;;;;;20.65;18.95;;;;;;;-141.02;73.22;76804.81;5133497;27;20192;-69
2023/07/04 08:09:55;;;;;;;20.65;19.05;;;;;;;-141.02;75.23;77301.22;5133752;27;20224;-66
2023/07/04 08:12:22;;;;;;;20.95;19.25;;;;;;;-141.02;75.34;78294.28;5133897;27;20723;-66
2023/07/04 08:14:50;;;;;;;21.27;19.52;;;;;;;-141.02;72.47;77797.72;5133990;27;20275;-67
2023/07/04 08:17:17;;;;;;;21.00;19.30;;;;;;;-141.02;76.21;79536.03;5133613;27;20662;-66
2023/07/04 08:19:45;;;;;;;21.90;20.10;;;;;;;-141.02;71.96;77797.72;5133933;27;20257;-61
2023/07/04 08:22:12;;;;;;;22.00;20.20;;;;;;;-141.02;72.16;78542.63;5133588;27;20662;-67
2023/07/04 08:24:39;;;;;;;21.50;19.70;;;;;;;-141.02;67.72;77549.47;5133897;27;20281;-67
2023/07/04 08:27:06;;;;;;;21.52;19.73;;;;;;;-141.02;68.08;77301.22;5133788;27;20392;-67
2023/07/04 08:29:33;;;;;;;21.55;19.75;;;;;;;-141.02;72.94;78046.00;5133406;27;20280;-68
2023/07/04 08:32:00;;;;;;;21.40;19.60;;;;;;;-141.02;69.35;77301.22;5133276;27;20193;-62
2023/07/04 08:34:27;;;;;;;21.65;19.85;;;;;;;-141.02;68.57;77053.00;5133338;27;20685;-68
2023/07/04 08:36:56;;;;;;;22.30;20.40;;;;;;;-141.02;64.83;76556.59;5133372;27;20188;-67
2023/07/04 08:39:23;;;;;;;22.40;20.50;;;;;;;-141.02;67.75;77797.72;5133562;27;20626;-68
2023/07/04 08:41:56;;;;;;;22.00;20.13;;;;;;;-141.02;66.42;77301.22;5133235;27;20192;-66
2023/07/04 08:44:25;;;;;;;22.10;20.20;;;;;;;-141.02;64.71;77549.47;5133768;27;20333;-67
2023/07/04 08:46:56;;;;;;;21.90;20.00;;;;;;;-141.02;70.50;79536.03;5133595;27;20558;-62
2023/07/04 08:49:30;;;;;;;21.70;19.80;;;;;;;-141.02;65.98;77549.47;5133167;27;20227;-67
2023/07/04 08:52:02;;;;;;;21.65;19.85;;;;;;;-141.02;64.58;77301.22;5133085;27;20184;-67
2023/07/04 09:59:26;;;;;;;23.80;21.70;;;;;;;-141.02;62.47;77797.72;5151849;27;20894;-68
2023/07/04 10:01:58;;;;;;;23.50;21.30;;;;;;;-141.02;57.54;77053.00;5151303;27;20245;-68
2023/07/04 10:04:33;;;;;;;24.17;21.95;;;;;;;-141.02;56.13;74819.81;5151367;27;20194;-69
2023/07/04 10:07:03;;;;;;;23.65;21.45;;;;;;;-141.02;56.27;75564.03;5151104;27;20408;-59
2023/07/04 10:09:30;;;;;;;24.30;22.00;;;;;;;-141.02;54.60;73579.75;5151138;27;20283;-68
2023/07/04 10:12:12;;;;;;;23.73;21.52;;;;;;;-141.02;56.04;74819.81;5150747;27;20582;-62
2023/07/04 10:14:47;;;;;;;23.85;21.65;;;;;;;-141.02;58.56;76556.59;5150595;27;20219;-69
2023/07/04 10:17:19;;;;;;;23.63;21.42;;;;;;;-141.02;58.98;75564.03;5150969;27;20207;-62
2023/07/04 10:19:48;;;;;;;23.80;21.60;;;;;;;-141.02;58.10;75812.16;5150637;27;20673;-69
2023/07/04 10:22:24;;;;;;;23.95;21.75;;;;;;;-141.02;57.37;75315.94;5150888;27;20196;-69
2023/07/04 10:24:51;;;;;;;25.05;22.77;;;;;;;-141.02;53.63;73083.88;5150796;27;20256;-69
2023/07/04 10:27:21;;;;;;;24.20;22.00;;;;;;;-141.02;55.08;72588.06;5150731;27;20253;-69
2023/07/04 10:29:55;;;;;;;23.90;21.70;;;;;;;-141.02;57.66;74571.75;5150473;27;20184;-68
2023/07/04 10:32:23;;;;;;;23.75;21.55;;;;;;;-141.02;54.01;73827.72;5150331;27;20180;-67
2023/07/04 10:34:51;;;;;;;23.85;21.65;;;;;;;-141.02;57.08;77053.00;5150234;27;20282;-59
2023/07/04 10:37:23;;;;;;;24.10;21.90;;;;;;;-141.02;52.84;75067.88;5150167;27;20279;-64
2023/07/04 10:39:55;;;;;;;25.40;23.10;;;;;;;-141.02;51.54;72588.06;5150505;27;20195;-68
2023/07/04 10:42:28;;;;;;;24.30;22.00;;;;;;;-141.02;51.49;72588.06;5150070;27;20645;-59
2023/07/04 10:44:58;;;;;;;24.40;22.10;;;;;;;-141.02;54.46;73579.75;5150321;27;20184;-66
2023/07/04 10:47:28;;;;;;;24.27;21.98;;;;;;;-141.02;54.86;73827.72;5149986;27;20238;-68
2023/07/04 10:50:02;;;;;;;24.30;22.02;;;;;;;-141.02;52.99;71348.81;5150111;27;20286;-69
2023/07/04 10:52:32;;;;;;;24.90;22.60;;;;;;;-141.02;52.47;71348.81;5149988;27;20275;-68
2023/07/04 10:55:00;;;;;;;25.45;23.05;;;;;;;-141.02;49.77;69862.34;5150033;27;20649;-64
2023/07/04 10:57:32;;;;;;;25.10;22.80;;;;;;;-141.02;53.69;70110.03;5149676;27;20223;-69
2023/07/04 11:00:05;;;;;;;25.25;22.95;;;;;;;-141.02;52.54;69119.34;5137709;27;20272;-64
2023/07/04 11:02:37;;;;;;;25.10;22.80;;;;;;;-141.02;46.37;61204.03;5136249;27;20185;-63
2023/07/04 11:05:10;;;;;;;24.33;22.02;;;;;;;-141.02;48.07;62439.59;5135856;27;20188;-69
2023/07/04 11:07:40;;;;;;;24.02;21.73;;;;;;;-141.02;52.58;65406.75;5135848;27;20641;-62
2023/07/04 11:10:09;;;;;;;24.85;22.55;;;;;;;-141.02;48.18;60957.00;5136123;27;20199;-64
2023/07/04 11:12:37;;;;;;;24.27;22.08;;;;;;;-141.02;49.86;63922.84;5136063;27;20196;-62
2023/07/04 11:15:17;;;;;;;23.95;21.75;;;;;;;-141.02;50.09;65901.53;5136384;27;20197;-68
2023/07/04 11:17:45;;;;;;;24.23;22.02;;;;;;;-141.02;49.57;63181.16;5135960;27;20192;-67
2023/07/04 11:20:17;;;;;;;24.52;22.23;;;;;;;-141.02;50.50;63181.16;5135541;27;20569;-60
2023/07/04 11:22:57;;;;;;;25.33;22.92;;;;;;;-141.02;49.34;63181.16;5135557;27;20180;-68
2023/07/04 11:25:36;;;;;;;24.45;22.05;;;;;;;-141.02;47.25;61945.31;5135730;27;20180;-69
2023/07/04 11:28:15;;;;;;;24.10;21.83;;;;;;;-141.02;49.28;62933.94;5135485;27;20564;-68
2023/07/04 11:30:46;;;;;;;25.63;23.33;;;;;;;-141.02;47.37;58252.13;5135547;27;20200;-68
2023/07/04 11:33:41;;;;;;;24.63;22.33;;;;;;;-141.02;47.22;59968.94;5135499;27;20245;-66
2023/07/04 11:36:16;;;;;;;25.02;22.63;;;;;;;-141.02;52.15;63181.16;5135712;27;20220;-64
2023/07/04 11:38:45;;;;;;;26.00;23.55;;;;;;;-141.02;46.37;57893.44;5135657;27;20188;-61
2023/07/04 11:41:14;;;;;;;25.40;23.00;;;;;;;-141.02;48.96;60462.94;5135773;27;20201;-68
2023/07/04 11:43:46;;;;;;;25.45;22.98;;;;;;;-141.02;46.74;57351.63;5135463;27;20295;-69
2023/07/04 11:46:32;;;;;;;25.50;23.05;;;;;;;-141.02;46.33;56090.94;5135674;27;20193;-68
2023/07/04 11:48:59;;;;;;;25.38;22.88;;;;;;;-141.02;49.08;57056.66;5135201;27;20216;-69
2023/07/04 11:51:29;;;;;;;26.17;23.67;;;;;;;-141.02;48.32;60215.94;5135362;27;20198;-69
2023/07/04 11:53:58;;;;;;;26.40;23.90;;;;;;;-141.02;46.55;60215.94;5135233;27;20192;-65
2023/07/04 11:56:37;;;;;;;26.50;24.00;;;;;;;-141.02;48.70;62686.75;5134872;27;20283;-68
2023/07/04 11:59:28;;;;;;;26.63;24.02;;;;;;;-141.02;46.00;61451.13;5134653;27;20306;-65
2023/07/04 12:02:25;;;;;;;25.65;23.15;;;;;;;-141.02;47.31;58271.41;5134755;27;20196;-65
2023/07/04 12:04:53;;;;;;;27.58;24.88;;;;;;;-141.02;44.77;55611.06;5134823;27;20192;-67
2023/07/04 12:07:27;;;;;;;27.48;24.77;;;;;;;-141.02;46.82;55819.19;5134525;27;20672;-68
2023/07/04 12:10:02;;;;;;;27.00;24.40;;;;;;;-141.02;46.73;55485.81;5134771;27;20194;-59
2023/07/04 12:12:32;;;;;;;25.90;23.30;;;;;;;-141.02;45.33;56198.88;5134501;27;20263;-60
2023/07/04 12:15:08;;;;;;;25.92;23.35;;;;;;;-141.02;46.18;55534.00;5134610;27;20239;-68
2023/07/04 12:17:39;;;;;;;25.33;22.73;;;;;;;-141.02;43.77;54572.56;5135377;27;20267;-63
2023/07/04 12:20:11;;;;;;;24.83;22.25;;;;;;;-141.02;45.62;55555.19;5134400;27;20195;-69
2023/07/04 12:22:44;;;;;;;25.65;22.98;;;;;;;-141.02;46.08;59475.03;5134762;27;20254;-68
2023/07/04 12:25:20;;;;;;;25.25;22.63;;;;;;;-141.02;44.84;56366.53;5134329;27;20558;-62
2023/07/04 12:27:47;;;;;;;25.80;23.20;;;;;;;-141.02;45.55;57210.88;5134611;27;20604;-62
2023/07/04 12:30:15;;;;;;;24.73;22.13;;;;;;;-141.02;43.90;57795.09;5134988;27;20279;-68
2023/07/04 12:32:44;;;;;;;25.45;22.75;;;;;;;-141.02;43.78;54324.06;5134487;27;20245;-62
2023/07/04 12:35:17;;;;;;;25.45;22.85;;;;;;;-141.02;41.42;52742.94;5134612;27;20193;-68
2023/07/04 12:37:49;;;;;;;24.65;22.05;;;;;;;-141.02;40.64;51530.16;5134783;27;20188;-68
2023/07/04 12:40:17;;;;;;;25.30;22.70;;;;;;;-141.02;42.35;51585.97;5134522;27;20642;-68
2023/07/04 12:42:46;;;;;;;24.33;21.77;;;;;;;-141.02;41.01;51510.91;5134275;27;20201;-66
2023/07/04 12:45:17;;;;;;;24.25;21.75;;;;;;;-141.02;40.30;50983.59;5134457;27;20268;-67
2023/07/04 12:47:48;;;;;;;24.77;22.17;;;;;;;-141.02;41.83;51576.34;5134113;27;20216;-61
2023/07/04 12:50:16;;;;;;;24.80;22.20;;;;;;;-141.02;42.00;52277.03;5133838;27;20192;-68
2023/07/04 12:52:46;;;;;;;24.58;22.08;;;;;;;-141.02;40.67;50914.31;5134521;27;20608;-60
2023/07/04 12:55:24;;;;;;;24.65;22.15;;;;;;;-141.02;41.53;51682.22;5134147;27;20255;-65
2023/07/04 12:57:53;;;;;;;24.35;21.85;;;;;;;-141.02;38.26;48927.03;5133502;27;20238;-69